Time;durP1;ratioP1;P1;durP2;ratioP2;P2;SDS_P1;SDS_P2;PMS_P1;PMS_P2;Temp;Humidity;BMP_temperature;BMP_pressure;BME280_temperature;BME280_humidity;BME280_pressure;Samples;Min_cycle;Max_cycle;Signal;HPM_P1;HPM_P2
2022/08/22 00:01:57;;;;;;;;;;;;;;;;;;5045251;28;19913;-48
2022/08/22 00:04:23;;;;;;;;;;;;;;;;;;5047876;28;19909;-48
2022/08/22 00:06:48;;;;;;;;;;;;;;;;;;5046294;28;19915;-47
2022/08/22 00:09:14;;;;;;;;;;;;;;;;;;5046978;28;19913;-47
2022/08/22 00:11:40;;;;;;;;;;;;;;;;;;5046874;28;19909;-49
2022/08/22 00:14:06;;;;;;;;;;;;;;;;;;5047157;28;19908;-49
2022/08/22 00:16:32;;;;;;;;;;;;;;;;;;5046536;28;19967;-46
2022/08/22 00:18:58;;;;;;;;;;;;;;;;;;5045933;28;19955;-47
2022/08/22 00:21:26;;;;;;;;;;;;;;;;;;5046398;28;20210;-50
2022/08/22 00:23:52;;;;;;;;;;;;;;;;;;5046132;28;19913;-49
2022/08/22 00:26:19;;;;;;;;;;;;;;;;;;5046797;28;19935;-50
2022/08/22 00:28:45;;;;;;;;;;;;;;;;;;5046420;28;20364;-47
2022/08/22 00:31:12;;;;;;;;;;;;;;;;;;5046416;28;19948;-45
2022/08/22 00:33:39;;;;;;;;;;;;;;;;;;5046858;28;19912;-47
2022/08/22 00:36:05;;;;;;;;;;;;;;;;;;5047108;28;20393;-48
2022/08/22 00:38:32;;;;;;;;;;;;;;;;;;5046450;28;19917;-49
2022/08/22 00:40:58;;;;;;;;;;;;;;;;;;5046373;28;20407;-48
2022/08/22 00:43:23;;;;;;;;;;;;;;;;;;5046218;28;19966;-50
2022/08/22 00:45:49;;;;;;;;;;;;;;;;;;5046022;28;19909;-47
2022/08/22 00:48:16;;;;;;;;;;;;;;;;;;5046134;28;19956;-46
2022/08/22 00:50:42;;;;;;;;;;;;;;;;;;5046028;28;19935;-48
2022/08/22 00:53:09;;;;;;;;;;;;;;;;;;5046421;28;19969;-46
2022/08/22 00:55:35;;;;;;;;;;;;;;;;;;5046652;28;19913;-49
2022/08/22 00:58:01;;;;;;;;;;;;;;;;;;5046047;28;20319;-49
2022/08/22 01:00:27;;;;;;;;;;;;;;;;;;5045827;28;19912;-46
2022/08/22 01:02:53;;;;;;;;;;;;;;;;;;5045749;28;19920;-50
2022/08/22 01:05:19;;;;;;;;;;;;;;;;;;5046112;28;19916;-50
2022/08/22 01:07:45;;;;;;;;;;;;;;;;;;5045892;28;20535;-48
2022/08/22 01:10:13;;;;;;;;;;;;;;;;;;5045886;28;20375;-48
2022/08/22 01:12:39;;;;;;;;;;;;;;;;;;5045456;28;20449;-46
2022/08/22 01:15:05;;;;;;;;;;;;;;;;;;5046325;28;19913;-49
2022/08/22 01:17:31;;;;;;;;;;;;;;;;;;5045746;28;19916;-48
2022/08/22 01:19:57;;;;;;;;;;;;;;;;;;5044891;28;19924;-49
2022/08/22 01:22:22;;;;;;;;;;;;;;;;;;5045873;28;19913;-49
2022/08/22 01:27:33;;;;;;;;;;;;;;;;;;5045950;28;20357;-49
2022/08/22 01:29:59;;;;;;;;;;;;;;;;;;5045354;28;20360;-49
2022/08/22 01:32:25;;;;;;;;;;;;;;;;;;5045700;28;19913;-49
2022/08/22 01:34:51;;;;;;;;;;;;;;;;;;5045506;28;20291;-49
2022/08/22 01:37:17;;;;;;;;;;;;;;;;;;5045575;28;19905;-50
2022/08/22 01:39:43;;;;;;;;;;;;;;;;;;5045243;28;19917;-46
2022/08/22 01:42:11;;;;;;;;;;;;;;;;;;5045548;28;19909;-47
2022/08/22 01:44:37;;;;;;;;;;;;;;;;;;5045501;28;19979;-50
2022/08/22 01:47:03;;;;;;;;;;;;;;;;;;5045978;28;20375;-47
2022/08/22 01:49:29;;;;;;;;;;;;;;;;;;5045553;28;19921;-49
2022/08/22 01:51:55;;;;;;;;;;;;;;;;;;5045248;28;19970;-46
2022/08/22 01:54:21;;;;;;;;;;;;;;;;;;5045324;28;20299;-48
2022/08/22 01:56:48;;;;;;;;;;;;;;;;;;5045108;28;19909;-51
2022/08/22 01:59:14;;;;;;;;;;;;;;;;;;5044948;28;19917;-50
2022/08/22 02:01:40;;;;;;;;;;;;;;;;;;5045088;28;19958;-46
2022/08/22 02:04:06;;;;;;;;;;;;;;;;;;5046086;28;20473;-51
2022/08/22 02:06:32;;;;;;;;;;;;;;;;;;5045208;28;19911;-48
2022/08/22 02:08:57;;;;;;;;;;;;;;;;;;5045202;28;19913;-49
2022/08/22 02:11:23;;;;;;;;;;;;;;;;;;5045507;28;19917;-49
2022/08/22 02:13:49;;;;;;;;;;;;;;;;;;5045463;28;19909;-49
2022/08/22 02:16:15;;;;;;;;;;;;;;;;;;5044210;28;19992;-50
2022/08/22 02:18:41;;;;;;;;;;;;;;;;;;5045094;28;20007;-49
2022/08/22 02:21:07;;;;;;;;;;;;;;;;;;5044742;28;19917;-50
2022/08/22 02:23:33;;;;;;;;;;;;;;;;;;5044969;28;19913;-46
2022/08/22 02:26:00;;;;;;;;;;;;;;;;;;5045042;28;20441;-48
2022/08/22 02:28:26;;;;;;;;;;;;;;;;;;5044659;28;20390;-51
2022/08/22 02:30:53;;;;;;;;;;;;;;;;;;5047686;28;20566;-46
2022/08/22 02:33:19;;;;;;;;;;;;;;;;;;5049372;28;20011;-47
2022/08/22 02:35:45;;;;;;;;;;;;;;;;;;5048615;28;20340;-49
2022/08/22 02:38:12;;;;;;;;;;;;;;;;;;5048625;28;19940;-49
2022/08/22 02:40:38;;;;;;;;;;;;;;;;;;5048447;28;19917;-48
2022/08/22 02:43:03;;;;;;;;;;;;;;;;;;5048546;28;19946;-49
2022/08/22 02:45:30;;;;;;;;;;;;;;;;;;5048386;28;19909;-49
2022/08/22 02:47:56;;;;;;;;;;;;;;;;;;5048446;28;19909;-46
2022/08/22 02:50:22;;;;;;;;;;;;;;;;;;5048711;28;19909;-46
2022/08/22 02:52:48;;;;;;;;;;;;;;;;;;5049098;28;19916;-46
2022/08/22 02:55:14;;;;;;;;;;;;;;;;;;5048368;28;20515;-50
2022/08/22 02:57:40;;;;;;;;;;;;;;;;;;5048145;28;19909;-50
2022/08/22 03:00:15;;;;;;;;;;;;;;;;;;5048113;28;19912;-49
2022/08/22 03:02:43;;;;;;;;;;;;;;;;;;5048071;28;20045;-50
2022/08/22 03:05:10;;;;;;;;;;;;;;;;;;5048289;28;19936;-47
2022/08/22 03:07:36;;;;;;;;;;;;;;;;;;5048015;28;20463;-49
2022/08/22 03:10:01;;;;;;;;;;;;;;;;;;5048116;28;19916;-47
2022/08/22 03:12:27;;;;;;;;;;;;;;;;;;5048311;28;20442;-47
2022/08/22 03:14:55;;;;;;;;;;;;;;;;;;5047819;28;19940;-50
2022/08/22 03:17:21;;;;;;;;;;;;;;;;;;5047615;28;19954;-47
2022/08/22 03:19:47;;;;;;;;;;;;;;;;;;5048246;28;19920;-49
2022/08/22 03:22:13;;;;;;;;;;;;;;;;;;5048066;28;19909;-49
2022/08/22 03:24:39;;;;;;;;;;;;;;;;;;5047529;28;19913;-49
2022/08/22 03:27:05;;;;;;;;;;;;;;;;;;5048056;28;19935;-48
2022/08/22 03:29:31;;;;;;;;;;;;;;;;;;5047240;28;19956;-49
2022/08/22 03:31:56;;;;;;;;;;;;;;;;;;5047930;28;19915;-49
2022/08/22 03:34:23;;;;;;;;;;;;;;;;;;5047987;28;19908;-49
2022/08/22 03:36:50;;;;;;;;;;;;;;;;;;5048172;28;19923;-50
2022/08/22 03:39:16;;;;;;;;;;;;;;;;;;5047309;28;19960;-50
2022/08/22 03:41:42;;;;;;;;;;;;;;;;;;5046513;28;19974;-49
2022/08/22 03:44:08;;;;;;;;;;;;;;;;;;5047232;28;19927;-49
2022/08/22 03:46:34;;;;;;;;;;;;;;;;;;5047476;28;19913;-50
2022/08/22 03:49:00;;;;;;;;;;;;;;;;;;5047549;28;19940;-48
2022/08/22 03:51:26;;;;;;;;;;;;;;;;;;5047694;28;19948;-49
2022/08/22 03:53:52;;;;;;;;;;;;;;;;;;5047398;28;20398;-47
2022/08/22 03:56:18;;;;;;;;;;;;;;;;;;5048148;28;20209;-50
2022/08/22 03:58:44;;;;;;;;;;;;;;;;;;5046701;28;19916;-49
2022/08/22 04:01:12;;;;;;;;;;;;;;;;;;5047070;28;19916;-48
2022/08/22 04:03:39;;;;;;;;;;;;;;;;;;5047300;28;20034;-50
2022/08/22 04:06:04;;;;;;;;;;;;;;;;;;5047229;28;19917;-47
2022/08/22 04:08:30;;;;;;;;;;;;;;;;;;5047198;28;20271;-49
2022/08/22 04:10:56;;;;;;;;;;;;;;;;;;5047013;28;19913;-49
2022/08/22 04:13:22;;;;;;;;;;;;;;;;;;5046935;28;20023;-47
2022/08/22 04:15:48;;;;;;;;;;;;;;;;;;5047474;28;19916;-50
2022/08/22 04:18:14;;;;;;;;;;;;;;;;;;5046865;28;19992;-48
2022/08/22 04:20:41;;;;;;;;;;;;;;;;;;5046867;28;19994;-50
2022/08/22 04:23:08;;;;;;;;;;;;;;;;;;5046614;28;19909;-48
2022/08/22 04:25:34;;;;;;;;;;;;;;;;;;5046729;28;19959;-46
2022/08/22 04:28:00;;;;;;;;;;;;;;;;;;5046735;28;20145;-48
2022/08/22 04:30:27;;;;;;;;;;;;;;;;;;5046563;28;19908;-48
2022/08/22 04:32:53;;;;;;;;;;;;;;;;;;5046463;28;20387;-50
2022/08/22 04:35:20;;;;;;;;;;;;;;;;;;5047271;28;19927;-48
2022/08/22 04:37:45;;;;;;;;;;;;;;;;;;5046339;28;19909;-49
2022/08/22 04:40:11;;;;;;;;;;;;;;;;;;5046216;28;19967;-49
2022/08/22 04:42:37;;;;;;;;;;;;;;;;;;5045986;28;20550;-49
2022/08/22 04:45:03;;;;;;;;;;;;;;;;;;5046395;28;19908;-50
2022/08/22 04:47:29;;;;;;;;;;;;;;;;;;5046089;28;19959;-50
2022/08/22 04:49:55;;;;;;;;;;;;;;;;;;5046359;28;19912;-47
2022/08/22 04:52:21;;;;;;;;;;;;;;;;;;5046675;28;20004;-46
2022/08/22 04:54:47;;;;;;;;;;;;;;;;;;5046138;28;19913;-50
2022/08/22 04:57:13;;;;;;;;;;;;;;;;;;5046229;28;20411;-51
2022/08/22 04:59:39;;;;;;;;;;;;;;;;;;5045940;28;20340;-48
2022/08/22 05:02:05;;;;;;;;;;;;;;;;;;5046075;28;20554;-50
2022/08/22 05:04:32;;;;;;;;;;;;;;;;;;5046207;28;19947;-48
2022/08/22 05:06:58;;;;;;;;;;;;;;;;;;5045877;28;20380;-50
2022/08/22 05:09:24;;;;;;;;;;;;;;;;;;5046092;28;19999;-48
2022/08/22 05:11:50;;;;;;;;;;;;;;;;;;5046557;28;19952;-50
2022/08/22 05:14:16;;;;;;;;;;;;;;;;;;5046020;28;20279;-50
2022/08/22 05:16:42;;;;;;;;;;;;;;;;;;5045660;28;20549;-46
2022/08/22 05:19:08;;;;;;;;;;;;;;;;;;5045760;28;19913;-50
2022/08/22 05:21:33;;;;;;;;;;;;;;;;;;5045604;28;19916;-46
2022/08/22 05:24:00;;;;;;;;;;;;;;;;;;5045893;28;19913;-49
2022/08/22 05:26:26;;;;;;;;;;;;;;;;;;5045677;28;20515;-46
2022/08/22 05:28:53;;;;;;;;;;;;;;;;;;5045791;28;19909;-46
2022/08/22 05:31:19;;;;;;;;;;;;;;;;;;5046165;28;20307;-46
2022/08/22 05:33:45;;;;;;;;;;;;;;;;;;5045461;28;19920;-47
2022/08/22 05:36:11;;;;;;;;;;;;;;;;;;5045442;28;19963;-48
2022/08/22 05:38:37;;;;;;;;;;;;;;;;;;5045276;28;19916;-47
2022/08/22 05:41:03;;;;;;;;;;;;;;;;;;5045484;28;19908;-50
2022/08/22 05:43:29;;;;;;;;;;;;;;;;;;5045079;28;19917;-49
2022/08/22 05:45:55;;;;;;;;;;;;;;;;;;5045499;28;19932;-48
2022/08/22 05:48:22;;;;;;;;;;;;;;;;;;5046322;28;19948;-50
2022/08/22 05:50:49;;;;;;;;;;;;;;;;;;5045616;28;19908;-50
2022/08/22 05:53:14;;;;;;;;;;;;;;;;;;5045654;28;20297;-50
2022/08/22 05:55:40;;;;;;;;;;;;;;;;;;5044935;28;19912;-48
2022/08/22 05:58:06;;;;;;;;;;;;;;;;;;5045424;28;19909;-50
2022/08/22 06:00:32;;;;;;;;;;;;;;;;;;5044935;28;20365;-45
2022/08/22 06:02:58;;;;;;;;;;;;;;;;;;5045023;28;20031;-46
2022/08/22 06:05:24;;;;;;;;;;;;;;;;;;5046937;28;19920;-48
2022/08/22 06:07:50;;;;;;;;;;;;;;;;;;5050686;28;19952;-47
2022/08/22 06:10:16;;;;;;;;;;;;;;;;;;5050668;28;19909;-49
2022/08/22 06:12:42;;;;;;;;;;;;;;;;;;5049585;28;20199;-46
2022/08/22 06:15:08;;;;;;;;;;;;;;;;;;5050522;28;20298;-47
2022/08/22 06:17:34;;;;;;;;;;;;;;;;;;5050138;28;19909;-46
2022/08/22 06:20:00;;;;;;;;;;;;;;;;;;5050261;28;19913;-46
2022/08/22 06:22:26;;;;;;;;;;;;;;;;;;5046530;28;19913;-46
2022/08/22 06:24:52;;;;;;;;;;;;;;;;;;5050743;28;19912;-46
2022/08/22 06:27:18;;;;;;;;;;;;;;;;;;5050722;28;19936;-48
2022/08/22 06:29:43;;;;;;;;;;;;;;;;;;5037644;28;20008;-47
2022/08/22 06:32:09;;;;;;;;;;;;;;;;;;5030089;28;19917;-49
2022/08/22 06:34:35;;;;;;;;;;;;;;;;;;5029939;28;19913;-48
2022/08/22 06:37:02;;;;;;;;;;;;;;;;;;5030065;28;20352;-46
2022/08/22 06:39:28;;;;;;;;;;;;;;;;;;5030333;28;19959;-46
2022/08/22 06:41:55;;;;;;;;;;;;;;;;;;5030147;28;19913;-45
2022/08/22 06:44:22;;;;;;;;;;;;;;;;;;5030843;28;20447;-46
2022/08/22 06:46:47;;;;;;;;;;;;;;;;;;5030398;28;19921;-49
2022/08/22 06:49:14;;;;;;;;;;;;;;;;;;5046089;28;19917;-45
2022/08/22 06:51:40;;;;;;;;;;;;;;;;;;5049455;28;20315;-49
2022/08/22 06:54:05;;;;;;;;;;;;;;;;;;5050146;28;19913;-48
2022/08/22 06:56:31;;;;;;;;;;;;;;;;;;5049518;28;19956;-47
2022/08/22 06:58:57;;;;;;;;;;;;;;;;;;5049516;28;19913;-49
2022/08/22 07:01:23;;;;;;;;;;;;;;;;;;5049813;28;19999;-46
2022/08/22 07:03:49;;;;;;;;;;;;;;;;;;5050097;28;19917;-47
2022/08/22 07:06:15;;;;;;;;;;;;;;;;;;5049637;28;19920;-50
2022/08/22 07:08:41;;;;;;;;;;;;;;;;;;5049513;28;19951;-45
2022/08/22 07:11:07;;;;;;;;;;;;;;;;;;5049557;28;20001;-50
2022/08/22 07:13:33;;;;;;;;;;;;;;;;;;5049052;28;20043;-45
2022/08/22 07:15:59;;;;;;;;;;;;;;;;;;5049143;28;19921;-45
2022/08/22 07:18:25;;;;;;;;;;;;;;;;;;5048926;28;19925;-47
2022/08/22 07:20:51;;;;;;;;;;;;;;;;;;5049366;28;19925;-49
2022/08/22 07:23:17;;;;;;;;;;;;;;;;;;5050202;28;20348;-49
2022/08/22 07:25:43;;;;;;;;;;;;;;;;;;5048561;28;19913;-49
2022/08/22 07:28:09;;;;;;;;;;;;;;;;;;5049216;28;19919;-49
2022/08/22 07:30:35;;;;;;;;;;;;;;;;;;5049303;28;19944;-51
2022/08/22 07:33:01;;;;;;;;;;;;;;;;;;5048030;28;19986;-47
2022/08/22 07:35:27;;;;;;;;;;;;;;;;;;5047963;28;19913;-50
2022/08/22 07:37:53;;;;;;;;;;;;;;;;;;5047458;28;19936;-46
2022/08/22 07:40:19;;;;;;;;;;;;;;;;;;5048557;28;20131;-46
2022/08/22 07:42:45;;;;;;;;;;;;;;;;;;5047178;28;19944;-48
2022/08/22 07:45:12;;;;;;;;;;;;;;;;;;5047414;28;19960;-47
2022/08/22 07:47:38;;;;;;;;;;;;;;;;;;5047287;28;19913;-47
2022/08/22 07:50:05;;;;;;;;;;;;;;;;;;5047830;28;20137;-48
2022/08/22 07:52:32;;;;;;;;;;;;;;;;;;5047154;28;20327;-46
2022/08/22 07:54:58;;;;;;;;;;;;;;;;;;5047559;28;19951;-48
2022/08/22 07:57:24;;;;;;;;;;;;;;;;;;5047424;28;19982;-48
2022/08/22 07:59:50;;;;;;;;;;;;;;;;;;5047925;28;19917;-46
2022/08/22 08:02:16;;;;;;;;;;;;;;;;;;5047191;28;19978;-48
2022/08/22 08:04:42;;;;;;;;;;;;;;;;;;5047027;28;19991;-48
2022/08/22 08:07:08;;;;;;;;;;;;;;;;;;5047083;28;19909;-49
2022/08/22 08:09:34;;;;;;;;;;;;;;;;;;5046910;28;19905;-48
2022/08/22 08:12:00;;;;;;;;;;;;;;;;;;5046923;28;19931;-50
2022/08/22 08:14:26;;;;;;;;;;;;;;;;;;5046902;28;19932;-46
2022/08/22 08:16:52;;;;;;;;;;;;;;;;;;5047134;28;19909;-48
2022/08/22 08:19:18;;;;;;;;;;;;;;;;;;5047149;28;19920;-48
2022/08/22 08:21:44;;;;;;;;;;;;;;;;;;5046731;28;19913;-49
2022/08/22 08:24:09;;;;;;;;;;;;;;;;;;5046871;28;19912;-49
2022/08/22 08:26:35;;;;;;;;;;;;;;;;;;5046267;28;19936;-51
2022/08/22 08:29:01;;;;;;;;;;;;;;;;;;5046031;28;19939;-47
2022/08/22 08:31:27;;;;;;;;;;;;;;;;;;5046643;28;19909;-48
2022/08/22 08:33:53;;;;;;;;;;;;;;;;;;5046352;28;19963;-48
2022/08/22 08:36:19;;;;;;;;;;;;;;;;;;5047118;28;20396;-51
2022/08/22 08:38:47;;;;;;;;;;;;;;;;;;5046164;28;19963;-46
2022/08/22 08:41:12;;;;;;;;;;;;;;;;;;5046520;28;19951;-50
2022/08/22 08:43:38;;;;;;;;;;;;;;;;;;5045795;28;19963;-48
2022/08/22 08:46:07;;;;;;;;;;;;;;;;;;5046602;28;20407;-46
2022/08/22 08:48:33;;;;;;;;;;;;;;;;;;5045923;28;20380;-46
2022/08/22 08:50:59;;;;;;;;;;;;;;;;;;5046412;28;19912;-47
2022/08/22 08:53:26;;;;;;;;;;;;;;;;;;5046437;28;19982;-46
2022/08/22 08:55:52;;;;;;;;;;;;;;;;;;5045879;28;19913;-46
2022/08/22 08:58:19;;;;;;;;;;;;;;;;;;5046518;28;20291;-48
2022/08/22 09:00:46;;;;;;;;;;;;;;;;;;5045882;28;19959;-50
2022/08/22 09:03:12;;;;;;;;;;;;;;;;;;5045963;28;19913;-48
2022/08/22 09:05:37;;;;;;;;;;;;;;;;;;5045890;28;19962;-50
2022/08/22 09:08:04;;;;;;;;;;;;;;;;;;5045839;28;20329;-50
2022/08/22 09:10:30;;;;;;;;;;;;;;;;;;5045593;28;19919;-46
2022/08/22 09:12:59;;;;;;;;;;;;;;;;;;5045839;28;19920;-51
2022/08/22 09:15:25;;;;;;;;;;;;;;;;;;5046154;28;19997;-51
2022/08/22 09:17:51;;;;;;;;;;;;;;;;;;5046305;28;19956;-51
2022/08/22 09:20:19;;;;;;;;;;;;;;;;;;5045873;28;19924;-48
2022/08/22 09:22:45;;;;;;;;;;;;;;;;;;5045684;28;20342;-48
2022/08/22 09:25:11;;;;;;;;;;;;;;;;;;5045550;28;19915;-51
2022/08/22 09:27:37;;;;;;;;;;;;;;;;;;5045345;28;19919;-51
2022/08/22 09:30:04;;;;;;;;;;;;;;;;;;5045768;28;19909;-48
2022/08/22 09:32:30;;;;;;;;;;;;;;;;;;5045415;28;19912;-50
2022/08/22 09:34:56;;;;;;;;;;;;;;;;;;5045584;28;20391;-51
2022/08/22 09:37:22;;;;;;;;;;;;;;;;;;5045945;28;19920;-48
2022/08/22 09:39:48;;;;;;;;;;;;;;;;;;5044665;28;19913;-51
2022/08/22 09:42:15;;;;;;;;;;;;;;;;;;5045373;28;20334;-50
2022/08/22 09:44:42;;;;;;;;;;;;;;;;;;5045208;28;19913;-46
2022/08/22 09:47:08;;;;;;;;;;;;;;;;;;5044305;28;20379;-47
2022/08/22 09:49:34;;;;;;;;;;;;;;;;;;5045001;28;19955;-47
2022/08/22 09:52:00;;;;;;;;;;;;;;;;;;5045441;28;19913;-47
2022/08/22 09:54:27;;;;;;;;;;;;;;;;;;5044977;28;19909;-49
2022/08/22 09:56:53;;;;;;;;;;;;;;;;;;5045215;28;19909;-49
2022/08/22 09:59:19;;;;;;;;;;;;;;;;;;5045881;28;20004;-47
2022/08/22 10:01:45;;;;;;;;;;;;;;;;;;5045190;28;20223;-47
2022/08/22 10:04:11;;;;;;;;;;;;;;;;;;5045331;28;20296;-48
2022/08/22 10:06:37;;;;;;;;;;;;;;;;;;5045170;28;19912;-47
2022/08/22 10:09:03;;;;;;;;;;;;;;;;;;5044854;28;19909;-51
2022/08/22 10:11:29;;;;;;;;;;;;;;;;;;5045442;28;19920;-49
2022/08/22 10:13:55;;;;;;;;;;;;;;;;;;5045356;28;20355;-50
2022/08/22 10:16:21;;;;;;;;;;;;;;;;;;5045953;28;19997;-48
2022/08/22 10:18:47;;;;;;;;;;;;;;;;;;5043839;28;19913;-48
2022/08/22 10:21:13;;;;;;;;;;;;;;;;;;5045391;28;19912;-47
2022/08/22 10:23:39;;;;;;;;;;;;;;;;;;5044808;28;19916;-50
2022/08/22 10:26:04;;;;;;;;;;;;;;;;;;5044882;28;20315;-48
2022/08/22 10:28:30;;;;;;;;;;;;;;;;;;5044741;28;19952;-47
2022/08/22 10:30:56;;;;;;;;;;;;;;;;;;5045210;28;20016;-49
2022/08/22 10:33:22;;;;;;;;;;;;;;;;;;5045197;28;19913;-49
2022/08/22 10:35:49;;;;;;;;;;;;;;;;;;5045226;28;19909;-48
2022/08/22 10:38:15;;;;;;;;;;;;;;;;;;5044910;28;20005;-48
2022/08/22 10:40:41;;;;;;;;;;;;;;;;;;5044343;28;20364;-48
2022/08/22 10:43:07;;;;;;;;;;;;;;;;;;5044971;28;20247;-49
2022/08/22 10:45:33;;;;;;;;;;;;;;;;;;5044768;28;19909;-51
2022/08/22 10:47:59;;;;;;;;;;;;;;;;;;5044978;28;19909;-50
2022/08/22 10:50:25;;;;;;;;;;;;;;;;;;5044934;28;20367;-49
2022/08/22 10:53:28;;;;;;;;;;;;;;;;;;5048533;28;19916;-48
2022/08/22 10:55:36;;;;;;;;;;;;;;;;;;5048101;28;19909;-48
2022/08/22 10:58:03;;;;;;;;;;;;;;;;;;5048478;28;20012;-49
2022/08/22 11:00:29;;;;;;;;;;;;;;;;;;5047998;28;19913;-52
2022/08/22 11:02:59;;;;;;;;;;;;;;;;;;5048600;28;19909;-52
2022/08/22 11:05:25;;;;;;;;;;;;;;;;;;5048349;28;19909;-52
2022/08/22 11:07:51;;;;;;;;;;;;;;;;;;5048587;28;19916;-50
2022/08/22 11:10:17;;;;;;;;;;;;;;;;;;5048087;28;19916;-49
2022/08/22 11:12:43;;;;;;;;;;;;;;;;;;5048115;28;19913;-50
2022/08/22 11:15:09;;;;;;;;;;;;;;;;;;5048055;28;19943;-50
2022/08/22 11:17:34;;;;;;;;;;;;;;;;;;5047865;28;20375;-50
2022/08/22 11:20:00;;;;;;;;;;;;;;;;;;5047851;28;19974;-50
2022/08/22 11:22:26;;;;;;;;;;;;;;;;;;5048221;28;19916;-50
2022/08/22 11:24:53;;;;;;;;;;;;;;;;;;5047609;28;19916;-50
2022/08/22 11:27:19;;;;;;;;;;;;;;;;;;5048514;28;19909;-53
2022/08/22 11:29:44;;;;;;;;;;;;;;;;;;5047576;28;19958;-50
2022/08/22 11:32:10;;;;;;;;;;;;;;;;;;5047666;28;19920;-52
2022/08/22 11:34:36;;;;;;;;;;;;;;;;;;5048039;28;19912;-51
2022/08/22 11:37:02;;;;;;;;;;;;;;;;;;5047867;28;20389;-49
2022/08/22 11:39:28;;;;;;;;;;;;;;;;;;5047513;28;19924;-52
2022/08/22 11:41:54;;;;;;;;;;;;;;;;;;5047731;28;19908;-49
2022/08/22 11:44:20;;;;;;;;;;;;;;;;;;5048016;28;19990;-50
2022/08/22 11:46:46;;;;;;;;;;;;;;;;;;5047268;28;19909;-49
2022/08/22 11:49:12;;;;;;;;;;;;;;;;;;5047434;28;20219;-52
2022/08/22 11:51:37;;;;;;;;;;;;;;;;;;5047459;28;19966;-50
2022/08/22 11:54:03;;;;;;;;;;;;;;;;;;5047258;28;20281;-50
2022/08/22 11:56:30;;;;;;;;;;;;;;;;;;5047036;28;19959;-49
2022/08/22 11:58:56;;;;;;;;;;;;;;;;;;5047338;28;19909;-51
2022/08/22 12:01:22;;;;;;;;;;;;;;;;;;5047702;28;20256;-49
2022/08/22 12:03:49;;;;;;;;;;;;;;;;;;5047035;28;19917;-49
2022/08/22 12:06:15;;;;;;;;;;;;;;;;;;5046888;28;20483;-49
2022/08/22 12:08:45;;;;;;;;;;;;;;;;;;5046684;28;20015;-50
2022/08/22 12:11:11;;;;;;;;;;;;;;;;;;5047006;28;19966;-51
2022/08/22 12:13:36;;;;;;;;;;;;;;;;;;5046886;28;20327;-48
2022/08/22 12:16:03;;;;;;;;;;;;;;;;;;5047523;28;19909;-50
2022/08/22 12:18:28;;;;;;;;;;;;;;;;;;5046816;28;19940;-49
2022/08/22 12:20:54;;;;;;;;;;;;;;;;;;5046763;28;19995;-51
2022/08/22 12:23:20;;;;;;;;;;;;;;;;;;5047429;28;19917;-51
2022/08/22 12:25:46;;;;;;;;;;;;;;;;;;5046915;28;19909;-50
2022/08/22 12:28:12;;;;;;;;;;;;;;;;;;5046817;28;20575;-50
2022/08/22 12:30:39;;;;;;;;;;;;;;;;;;5046329;28;19942;-52
2022/08/22 12:33:05;;;;;;;;;;;;;;;;;;5046660;28;19916;-49
2022/08/22 12:35:31;;;;;;;;;;;;;;;;;;5046110;28;19913;-51
2022/08/22 12:37:57;;;;;;;;;;;;;;;;;;5046388;28;20399;-52
2022/08/22 12:40:23;;;;;;;;;;;;;;;;;;5046517;28;20372;-50
2022/08/22 12:42:49;;;;;;;;;;;;;;;;;;5045624;28;20335;-48
2022/08/22 12:45:14;;;;;;;;;;;;;;;;;;5046389;28;20165;-49
2022/08/22 12:47:40;;;;;;;;;;;;;;;;;;5046377;28;19920;-48
2022/08/22 12:50:06;;;;;;;;;;;;;;;;;;5046206;28;19909;-48
2022/08/22 12:52:32;;;;;;;;;;;;;;;;;;5046000;28;20413;-52
2022/08/22 12:54:58;;;;;;;;;;;;;;;;;;5046395;28;19955;-48
2022/08/22 12:57:24;;;;;;;;;;;;;;;;;;5046199;28;20283;-48
2022/08/22 12:59:50;;;;;;;;;;;;;;;;;;5046277;28;19912;-49
2022/08/22 13:02:17;;;;;;;;;;;;;;;;;;5046394;28;19909;-48
2022/08/22 13:04:43;;;;;;;;;;;;;;;;;;5045746;28;19951;-48
2022/08/22 13:07:08;;;;;;;;;;;;;;;;;;5046027;28;20409;-48
2022/08/22 13:09:34;;;;;;;;;;;;;;;;;;5045607;28;19909;-49
2022/08/22 13:12:00;;;;;;;;;;;;;;;;;;5046146;28;19971;-50
2022/08/22 13:14:27;;;;;;;;;;;;;;;;;;5045984;28;19905;-49
2022/08/22 13:16:53;;;;;;;;;;;;;;;;;;5045624;28;19913;-50
2022/08/22 13:19:21;;;;;;;;;;;;;;;;;;5046250;28;19920;-49
2022/08/22 13:21:47;;;;;;;;;;;;;;;;;;5045889;28;19963;-51
2022/08/22 13:24:13;;;;;;;;;;;;;;;;;;5045232;28;20337;-49
2022/08/22 13:26:39;;;;;;;;;;;;;;;;;;5046081;28;20003;-47
2022/08/22 13:29:06;;;;;;;;;;;;;;;;;;5047139;28;19961;-50
2022/08/22 13:31:32;;;;;;;;;;;;;;;;;;5046960;28;19992;-52
2022/08/22 13:33:58;;;;;;;;;;;;;;;;;;5046945;28;19905;-51
2022/08/22 13:36:24;;;;;;;;;;;;;;;;;;5046593;28;19916;-51
2022/08/22 13:38:50;;;;;;;;;;;;;;;;;;5044770;28;20789;-52
2022/08/22 13:41:16;;;;;;;;;;;;;;;;;;5046679;28;20457;-49
2022/08/22 13:43:42;;;;;;;;;;;;;;;;;;5046948;28;19967;-49
2022/08/22 13:46:08;;;;;;;;;;;;;;;;;;5046620;28;19913;-52
2022/08/22 13:48:34;;;;;;;;;;;;;;;;;;5046059;28;20417;-52
2022/08/22 13:51:00;;;;;;;;;;;;;;;;;;5043482;28;20059;-52
2022/08/22 13:53:26;;;;;;;;;;;;;;;;;;5045107;28;19920;-52
2022/08/22 13:55:52;;;;;;;;;;;;;;;;;;5045437;28;19909;-51
2022/08/22 13:58:18;;;;;;;;;;;;;;;;;;5047548;28;19920;-51
2022/08/22 14:00:44;;;;;;;;;;;;;;;;;;5041605;28;19936;-49
2022/08/22 14:03:10;;;;;;;;;;;;;;;;;;5046254;28;19971;-51
2022/08/22 14:05:36;;;;;;;;;;;;;;;;;;5045641;28;19920;-52
2022/08/22 14:08:02;;;;;;;;;;;;;;;;;;5044867;28;19931;-49
2022/08/22 14:10:28;;;;;;;;;;;;;;;;;;5044265;28;19944;-52
2022/08/22 14:12:55;;;;;;;;;;;;;;;;;;5046755;28;20002;-49
2022/08/22 14:15:22;;;;;;;;;;;;;;;;;;5043966;28;19912;-50
2022/08/22 14:17:48;;;;;;;;;;;;;;;;;;5044152;28;19912;-52
2022/08/22 14:20:14;;;;;;;;;;;;;;;;;;5043089;28;20427;-49
2022/08/22 14:22:39;;;;;;;;;;;;;;;;;;5044261;28;19923;-49
2022/08/22 14:25:05;;;;;;;;;;;;;;;;;;5042771;28;19909;-50
2022/08/22 14:27:31;;;;;;;;;;;;;;;;;;5048303;28;19913;-49
2022/08/22 14:29:57;;;;;;;;;;;;;;;;;;5046029;28;19928;-48
2022/08/22 14:32:23;;;;;;;;;;;;;;;;;;5049463;28;19912;-49
2022/08/22 14:34:49;;;;;;;;;;;;;;;;;;5047873;28;19920;-48
2022/08/22 14:37:15;;;;;;;;;;;;;;;;;;5049662;28;19947;-48
2022/08/22 14:39:42;;;;;;;;;;;;;;;;;;5028972;28;19962;-50
2022/08/22 14:42:08;;;;;;;;;;;;;;;;;;5049117;28;19913;-50
2022/08/22 14:44:34;;;;;;;;;;;;;;;;;;5048379;28;20617;-47
2022/08/22 14:47:00;;;;;;;;;;;;;;;;;;5050390;28;19912;-48
2022/08/22 14:49:26;;;;;;;;;;;;;;;;;;5048344;28;19975;-47
2022/08/22 14:51:53;;;;;;;;;;;;;;;;;;5048669;28;20030;-49
2022/08/22 14:54:20;;;;;;;;;;;;;;;;;;5049715;28;20395;-48
2022/08/22 14:56:46;;;;;;;;;;;;;;;;;;5049983;28;19916;-48
2022/08/22 14:59:12;;;;;;;;;;;;;;;;;;5049144;28;19917;-51
2022/08/22 15:01:38;;;;;;;;;;;;;;;;;;5049577;28;19916;-48
2022/08/22 15:04:04;;;;;;;;;;;;;;;;;;5048990;28;19917;-49
2022/08/22 15:06:30;;;;;;;;;;;;;;;;;;5048654;28;19913;-48
2022/08/22 15:08:56;;;;;;;;;;;;;;;;;;5047556;28;19943;-48
2022/08/22 15:11:23;;;;;;;;;;;;;;;;;;5049327;28;20356;-50
2022/08/22 15:13:50;;;;;;;;;;;;;;;;;;5046121;28;19917;-49
2022/08/22 15:16:16;;;;;;;;;;;;;;;;;;5047703;28;19909;-48
2022/08/22 15:18:44;;;;;;;;;;;;;;;;;;5047537;28;19912;-51
2022/08/22 15:21:10;;;;;;;;;;;;;;;;;;5047116;28;19916;-48
2022/08/22 15:23:36;;;;;;;;;;;;;;;;;;5047368;28;19924;-47
2022/08/22 15:26:02;;;;;;;;;;;;;;;;;;5045419;28;19912;-47
2022/08/22 15:28:29;;;;;;;;;;;;;;;;;;5045762;28;20415;-49
2022/08/22 15:30:55;;;;;;;;;;;;;;;;;;5044458;28;19913;-48
2022/08/22 15:33:21;;;;;;;;;;;;;;;;;;5047446;28;19913;-49
2022/08/22 15:35:47;;;;;;;;;;;;;;;;;;5047187;28;19924;-48
2022/08/22 15:38:14;;;;;;;;;;;;;;;;;;5045043;28;19969;-50
2022/08/22 15:40:40;;;;;;;;;;;;;;;;;;5046357;28;20916;-48
2022/08/22 15:43:06;;;;;;;;;;;;;;;;;;5047636;28;19939;-48
2022/08/22 15:45:32;;;;;;;;;;;;;;;;;;5045703;28;19967;-47
2022/08/22 15:47:58;;;;;;;;;;;;;;;;;;5047863;28;19948;-47
2022/08/22 15:50:23;;;;;;;;;;;;;;;;;;5043136;28;20007;-46
2022/08/22 15:52:50;;;;;;;;;;;;;;;;;;5046684;28;20442;-50
2022/08/22 15:55:16;;;;;;;;;;;;;;;;;;5046829;28;19912;-48
2022/08/22 15:57:42;;;;;;;;;;;;;;;;;;5046159;28;19962;-47
2022/08/22 16:00:08;;;;;;;;;;;;;;;;;;5044632;28;19917;-49
2022/08/22 16:02:34;;;;;;;;;;;;;;;;;;5048751;28;19913;-48
2022/08/22 16:05:02;;;;;;;;;;;;;;;;;;5047272;28;19917;-46
2022/08/22 16:07:27;;;;;;;;;;;;;;;;;;5048592;28;19927;-49
2022/08/22 16:09:53;;;;;;;;;;;;;;;;;;5047045;28;19909;-49
2022/08/22 16:12:19;;;;;;;;;;;;;;;;;;5049605;28;19924;-51
2022/08/22 16:14:46;;;;;;;;;;;;;;;;;;5047545;28;19924;-47
2022/08/22 16:17:12;;;;;;;;;;;;;;;;;;5049206;28;20330;-49
2022/08/22 16:19:38;;;;;;;;;;;;;;;;;;5043640;28;19924;-47
2022/08/22 16:22:04;;;;;;;;;;;;;;;;;;5049064;28;20059;-47
2022/08/22 16:24:30;;;;;;;;;;;;;;;;;;5047972;28;20569;-46
2022/08/22 16:26:56;;;;;;;;;;;;;;;;;;5049042;28;20046;-49
2022/08/22 16:29:22;;;;;;;;;;;;;;;;;;5047500;28;20007;-46
2022/08/22 16:31:48;;;;;;;;;;;;;;;;;;5047553;28;19948;-47
2022/08/22 16:34:14;;;;;;;;;;;;;;;;;;5047338;28;19940;-47
2022/08/22 16:36:40;;;;;;;;;;;;;;;;;;5046662;28;19912;-47
2022/08/22 16:39:06;;;;;;;;;;;;;;;;;;5046536;28;19912;-48
2022/08/22 16:41:32;;;;;;;;;;;;;;;;;;5035190;28;20011;-48